createdAt,value
2022-10-11T00:00:02.548Z,10.45
2022-10-11T00:00:37.142Z,10.44
2022-10-11T00:01:09.947Z,10.43
2022-10-11T00:01:24.477Z,10.42
2022-10-11T00:01:38.551Z,10.43
2022-10-11T00:01:51.167Z,10.42
2022-10-11T00:02:03.931Z,10.42
2022-10-11T00:02:16.998Z,10.41
2022-10-11T00:02:29.749Z,10.42
2022-10-11T00:02:43.362Z,10.42
2022-10-11T00:02:55.956Z,10.41
2022-10-11T00:03:08.569Z,10.42
2022-10-11T00:03:21.607Z,10.41
2022-10-11T00:03:34.260Z,10.41
2022-10-11T00:03:46.929Z,10.43
2022-10-11T00:03:59.567Z,10.43
2022-10-11T00:04:12.412Z,10.43
2022-10-11T00:04:26.124Z,10.43
2022-10-11T00:04:38.810Z,10.43
2022-10-11T00:04:51.583Z,10.41
2022-10-11T00:05:04.745Z,10.41
2022-10-11T00:05:17.753Z,10.42
2022-10-11T00:05:30.613Z,10.39
2022-10-11T00:05:44.166Z,10.41
2022-10-11T00:05:57.979Z,10.41
2022-10-11T00:06:10.591Z,10.41
2022-10-11T00:06:23.254Z,10.41
2022-10-11T00:06:37.938Z,10.40
2022-10-11T00:06:50.544Z,10.42
2022-10-11T00:07:03.197Z,10.40
2022-10-11T00:07:15.866Z,10.41
2022-10-11T00:07:29.902Z,10.39
2022-10-11T00:07:42.835Z,10.39
2022-10-11T00:07:55.833Z,10.38
2022-10-11T00:08:08.414Z,10.38
2022-10-11T00:08:21.144Z,10.39
2022-10-11T00:08:33.736Z,10.39
2022-10-11T00:08:47.338Z,10.39
2022-10-11T00:08:59.973Z,10.38
2022-10-11T00:09:12.687Z,10.38
2022-10-11T00:09:25.363Z,10.39
2022-10-11T00:09:38.122Z,10.38
2022-10-11T00:09:50.695Z,10.37
2022-10-11T00:10:05.554Z,10.38
2022-10-11T00:10:18.799Z,10.38
2022-10-11T00:10:31.549Z,10.37
2022-10-11T00:10:44.824Z,10.36
2022-10-11T00:10:58.853Z,10.35
2022-10-11T00:11:11.814Z,10.36
2022-10-11T00:11:24.425Z,10.37
2022-10-11T00:11:37.335Z,10.37
2022-10-11T00:11:50.951Z,10.36
2022-10-11T00:12:04.264Z,10.36
2022-10-11T00:12:16.858Z,10.36
2022-10-11T00:12:29.672Z,10.35
2022-10-11T00:12:42.500Z,10.34
2022-10-11T00:12:55.221Z,10.34
2022-10-11T00:13:08.700Z,10.33
2022-10-11T00:13:22.297Z,10.32
2022-10-11T00:13:35.552Z,10.32
2022-10-11T00:13:48.339Z,10.31
2022-10-11T00:14:00.964Z,10.30
2022-10-11T00:14:13.566Z,10.30
2022-10-11T00:14:28.052Z,10.30
2022-10-11T00:14:40.715Z,10.29
2022-10-11T00:14:53.330Z,10.29
2022-10-11T00:15:08.226Z,10.29
2022-10-11T00:15:22.126Z,10.30
2022-10-11T00:15:35.273Z,10.29
2022-10-11T00:15:49.569Z,10.30
2022-10-11T00:16:08.355Z,10.29
2022-10-11T00:16:22.474Z,10.28
2022-10-11T00:16:35.584Z,10.27
2022-10-11T00:16:49.619Z,10.26
2022-10-11T00:17:02.302Z,10.25
2022-10-11T00:17:14.951Z,10.24
2022-10-11T00:17:27.572Z,10.25
2022-10-11T00:17:40.390Z,10.24
2022-10-11T00:17:53.985Z,10.24
2022-10-11T00:18:07.238Z,10.22
2022-10-11T00:18:20.195Z,10.22
2022-10-11T00:18:32.809Z,10.21
2022-10-11T00:18:45.436Z,10.21
2022-10-11T00:18:58.057Z,10.21
2022-10-11T00:19:11.243Z,10.20
2022-10-11T00:19:24.902Z,10.20
2022-10-11T00:19:37.503Z,10.20
2022-10-11T00:19:50.410Z,10.19
2022-10-11T00:20:03.132Z,10.20
2022-10-11T00:20:16.081Z,10.19
2022-10-11T00:20:28.762Z,10.19
2022-10-11T00:20:42.383Z,10.17
2022-10-11T00:21:02.059Z,10.16
2022-10-11T00:21:16.113Z,10.14
2022-10-11T00:21:28.736Z,10.15
2022-10-11T00:21:41.406Z,10.14
2022-10-11T00:21:54.028Z,10.12
2022-10-11T00:22:07.620Z,10.14
2022-10-11T00:22:20.241Z,10.11
2022-10-11T00:22:33.005Z,10.11
2022-10-11T00:22:45.847Z,10.11
2022-10-11T00:22:58.446Z,10.10
2022-10-11T00:23:11.043Z,10.12
2022-10-11T00:23:23.645Z,10.10
2022-10-11T00:23:36.436Z,10.11
2022-10-11T00:23:50.616Z,10.10
2022-10-11T00:24:03.519Z,10.10
2022-10-11T00:24:16.906Z,10.09
2022-10-11T00:24:29.525Z,10.07
2022-10-11T00:24:42.188Z,10.05
2022-10-11T00:24:54.776Z,10.04
2022-10-11T00:25:09.398Z,10.04
2022-10-11T00:25:22.994Z,10.03
2022-10-11T00:25:35.657Z,10.03
2022-10-11T00:25:56.997Z,10.01
2022-10-11T00:26:10.950Z,10.02
2022-10-11T00:26:23.583Z,10.03
2022-10-11T00:26:36.160Z,10.03
2022-10-11T00:26:49.791Z,10.03
2022-10-11T00:27:02.400Z,10.03
2022-10-11T00:27:15.021Z,10.03
2022-10-11T00:27:27.667Z,10.02
2022-10-11T00:27:40.243Z,10.01
2022-10-11T00:27:53.031Z,10.00
2022-10-11T00:28:05.694Z,10.00
2022-10-11T00:28:19.359Z,10.00
2022-10-11T00:28:32.749Z,10.00
2022-10-11T00:28:45.412Z,9.99
2022-10-11T00:28:58.040Z,9.98
2022-10-11T00:29:11.882Z,9.98
2022-10-11T00:29:25.710Z,9.98
2022-10-11T00:29:38.542Z,9.98
2022-10-11T00:29:51.159Z,9.97
2022-10-11T00:30:04.902Z,9.98
2022-10-11T00:30:17.667Z,9.97
2022-10-11T00:30:30.323Z,9.96
2022-10-11T00:30:43.806Z,9.96
2022-10-11T00:30:56.499Z,9.96
2022-10-11T00:31:11.828Z,9.94
2022-10-11T00:31:24.590Z,9.94
2022-10-11T00:31:37.162Z,9.95
2022-10-11T00:31:51.196Z,9.94
2022-10-11T00:32:04.113Z,9.94
2022-10-11T00:32:17.842Z,9.93
2022-10-11T00:32:30.513Z,9.90
2022-10-11T00:32:43.140Z,9.90
2022-10-11T00:32:55.962Z,9.89
2022-10-11T00:33:08.552Z,9.88
2022-10-11T00:33:21.274Z,9.88
2022-10-11T00:33:34.010Z,9.88
2022-10-11T00:33:47.664Z,9.87
2022-10-11T00:34:00.290Z,9.87
2022-10-11T00:34:13.372Z,9.87
2022-10-11T00:34:25.996Z,9.85
2022-10-11T00:34:38.595Z,9.86
2022-10-11T00:34:51.212Z,9.86
2022-10-11T00:35:04.803Z,9.85
2022-10-11T00:35:18.645Z,9.86
2022-10-11T00:35:31.340Z,9.86
2022-10-11T00:35:44.113Z,9.86
2022-10-11T00:35:59.050Z,9.86
2022-10-11T00:36:14.402Z,9.84
2022-10-11T00:36:27.493Z,9.84
2022-10-11T00:36:40.088Z,9.83
2022-10-11T00:36:53.707Z,9.82
2022-10-11T00:37:06.329Z,9.81
2022-10-11T00:37:19.172Z,9.80
2022-10-11T00:37:31.810Z,9.79
2022-10-11T00:37:44.488Z,9.78
2022-10-11T00:37:57.465Z,9.76
2022-10-11T00:38:10.061Z,9.77
2022-10-11T00:38:22.686Z,9.76
2022-10-11T00:38:36.515Z,9.75
2022-10-11T00:38:49.428Z,9.76
2022-10-11T00:39:02.026Z,9.76
2022-10-11T00:39:14.718Z,9.76
2022-10-11T00:39:27.302Z,9.75
2022-10-11T00:39:39.935Z,9.74
2022-10-11T00:39:52.578Z,9.75
2022-10-11T00:40:08.382Z,9.74
2022-10-11T00:40:21.310Z,9.73
2022-10-11T00:40:34.001Z,9.74
2022-10-11T00:40:46.587Z,9.73
2022-10-11T00:40:59.648Z,9.73
2022-10-11T00:41:13.039Z,9.73
2022-10-11T00:41:25.733Z,9.73
2022-10-11T00:41:39.352Z,9.72
2022-10-11T00:41:52.038Z,9.71
2022-10-11T00:42:04.785Z,9.71
2022-10-11T00:42:17.819Z,9.70
2022-10-11T00:42:30.410Z,9.70
2022-10-11T00:42:43.310Z,9.68
2022-10-11T00:42:55.919Z,9.68
2022-10-11T00:43:17.835Z,9.69
2022-10-11T00:43:32.367Z,9.68
2022-10-11T00:43:45.364Z,9.68
2022-10-11T00:44:15.600Z,9.65
2022-10-11T00:44:31.141Z,9.65
2022-10-11T00:44:46.805Z,9.64
2022-10-11T00:45:32.447Z,9.63
2022-10-11T00:46:04.432Z,9.60
2022-10-11T00:46:31.983Z,9.60
2022-10-11T00:46:53.629Z,9.59
2022-10-11T00:47:15.514Z,9.59
2022-10-11T00:47:28.102Z,9.58
2022-10-11T00:47:42.553Z,9.58
2022-10-11T00:47:56.768Z,9.57
2022-10-11T00:48:15.770Z,9.57
2022-10-11T00:48:36.484Z,9.56
2022-10-11T00:48:53.897Z,9.56
2022-10-11T00:49:14.227Z,9.56
2022-10-11T00:49:35.223Z,9.55
2022-10-11T00:49:52.999Z,9.55
2022-10-11T00:50:10.901Z,9.54
2022-10-11T00:50:24.581Z,9.52
2022-10-11T00:50:37.669Z,9.54
2022-10-11T00:50:50.530Z,9.54
2022-10-11T00:51:08.067Z,9.54
2022-10-11T00:51:27.064Z,9.55
2022-10-11T00:51:45.561Z,9.53
2022-10-11T00:52:02.022Z,9.54
2022-10-11T00:52:19.767Z,9.54
2022-10-11T00:52:37.862Z,9.53
2022-10-11T00:52:56.400Z,9.53
2022-10-11T00:53:12.089Z,9.53
2022-10-11T00:53:26.185Z,9.52
2022-10-11T00:53:39.199Z,9.51
2022-10-11T00:53:52.966Z,9.52
2022-10-11T00:54:08.329Z,9.51
2022-10-11T00:54:25.597Z,9.51
2022-10-11T00:54:41.668Z,9.53
2022-10-11T00:54:54.400Z,9.51
2022-10-11T00:55:10.640Z,9.50
2022-10-11T00:55:28.321Z,9.50
2022-10-11T00:55:48.060Z,9.49
2022-10-11T00:56:04.859Z,9.47
2022-10-11T00:56:23.750Z,9.47
2022-10-11T00:56:39.507Z,9.47
2022-10-11T00:56:56.952Z,9.46
2022-10-11T00:57:15.518Z,9.43
2022-10-11T00:57:31.654Z,9.43
2022-10-11T00:57:48.512Z,9.44
2022-10-11T00:58:01.529Z,9.42
2022-10-11T00:58:14.890Z,9.42
2022-10-11T00:58:27.706Z,9.42
2022-10-11T00:58:41.448Z,9.41
2022-10-11T00:58:56.293Z,9.41
2022-10-11T00:59:14.002Z,9.40
2022-10-11T00:59:29.673Z,9.40
2022-10-11T00:59:45.435Z,9.38
2022-10-11T00:59:58.803Z,9.39
2022-10-11T01:00:13.990Z,9.38
2022-10-11T01:00:26.665Z,9.38
2022-10-11T01:00:40.362Z,9.37
2022-10-11T01:00:54.219Z,9.36
2022-10-11T01:01:07.815Z,9.36
2022-10-11T01:01:20.574Z,9.36
2022-10-11T01:01:33.375Z,9.35
2022-10-11T01:01:46.101Z,9.34
2022-10-11T01:01:58.794Z,9.34
2022-10-11T01:02:15.516Z,9.33
2022-10-11T01:02:30.306Z,9.34
2022-10-11T01:02:43.640Z,9.33
2022-10-11T01:02:57.017Z,9.32
2022-10-11T01:03:09.650Z,9.31
2022-10-11T01:03:25.704Z,9.31
2022-10-11T01:03:40.389Z,9.30
2022-10-11T01:03:54.311Z,9.30
2022-10-11T01:04:06.976Z,9.30
2022-10-11T01:04:19.596Z,9.31
2022-10-11T01:04:32.964Z,9.28
2022-10-11T01:04:45.753Z,9.30
2022-10-11T01:05:25.109Z,9.29
2022-10-11T01:05:33.080Z,9.29
2022-10-11T01:05:46.266Z,9.30
2022-10-11T01:05:58.968Z,9.29
2022-10-11T01:06:11.775Z,9.27
2022-10-11T01:06:24.584Z,9.29
2022-10-11T01:06:37.332Z,9.29
2022-10-11T01:06:52.309Z,9.28
2022-10-11T01:07:04.947Z,9.29
2022-10-11T01:07:19.250Z,9.28
2022-10-11T01:07:33.458Z,9.27
2022-10-11T01:07:47.865Z,9.27
2022-10-11T01:08:00.887Z,9.26
2022-10-11T01:08:13.876Z,9.26
2022-10-11T01:08:28.919Z,9.26
2022-10-11T01:08:41.912Z,9.27
2022-10-11T01:08:54.863Z,9.26
2022-10-11T01:09:07.934Z,9.24
2022-10-11T01:09:22.475Z,9.23
2022-10-11T01:09:35.358Z,9.23
2022-10-11T01:09:48.029Z,9.23
2022-10-11T01:10:01.031Z,9.22
2022-10-11T01:10:15.290Z,9.22
2022-10-11T01:10:28.378Z,9.22
2022-10-11T01:10:41.045Z,9.22
2022-10-11T01:10:53.844Z,9.21
2022-10-11T01:11:07.196Z,9.21
2022-10-11T01:11:23.363Z,9.20
2022-10-11T01:11:38.269Z,9.20
2022-10-11T01:11:54.876Z,9.20
2022-10-11T01:12:15.062Z,9.20
2022-10-11T01:12:31.017Z,9.19
2022-10-11T01:12:54.782Z,9.18
2022-10-11T01:13:16.831Z,9.18
2022-10-11T01:13:42.573Z,9.17
2022-10-11T01:14:20.084Z,9.15
2022-10-11T01:14:54.425Z,9.14
2022-10-11T01:15:17.157Z,9.15
2022-10-11T01:15:33.822Z,9.14
2022-10-11T01:15:55.600Z,9.14
2022-10-11T01:16:14.394Z,9.13
2022-10-11T01:16:35.130Z,9.13
2022-10-11T01:16:55.326Z,9.13
2022-10-11T01:17:19.872Z,9.13
2022-10-11T01:17:40.377Z,9.10
2022-10-11T01:18:00.672Z,9.11
2022-10-11T01:18:19.815Z,9.10
2022-10-11T01:18:41.054Z,9.09
2022-10-11T01:19:05.898Z,9.11
2022-10-11T01:19:38.625Z,9.10
2022-10-11T01:20:30.647Z,9.09
2022-10-11T01:20:59.655Z,9.07
2022-10-11T01:21:22.019Z,9.06
2022-10-11T01:21:42.663Z,9.04
2022-10-11T01:22:08.503Z,9.05
2022-10-11T01:22:45.548Z,9.02
2022-10-11T01:23:37.748Z,9.03
2022-10-11T01:24:08.789Z,9.01
2022-10-11T01:25:02.594Z,9.00
2022-10-11T01:25:27.448Z,8.98
2022-10-11T01:25:58.695Z,9.00
2022-10-11T01:26:37.148Z,8.98
2022-10-11T01:27:18.190Z,8.95
2022-10-11T01:27:55.556Z,8.94
2022-10-11T01:28:23.099Z,8.93
2022-10-11T01:28:47.953Z,8.93
2022-10-11T01:29:11.719Z,8.91
2022-10-11T01:29:41.569Z,8.91
2022-10-11T01:30:05.103Z,8.91
2022-10-11T01:30:26.004Z,8.90
2022-10-11T01:30:39.248Z,8.91
2022-10-11T01:30:53.301Z,8.89
2022-10-11T01:31:14.018Z,8.90
2022-10-11T01:31:32.214Z,8.91
2022-10-11T01:31:53.446Z,8.90
2022-10-11T01:32:15.247Z,8.89
2022-10-11T01:32:33.723Z,8.88
2022-10-11T01:32:50.934Z,8.87
2022-10-11T01:33:15.505Z,8.87
2022-10-11T01:33:36.915Z,8.86
2022-10-11T01:33:54.869Z,8.86
2022-10-11T01:34:14.532Z,8.84
2022-10-11T01:34:32.630Z,8.85
2022-10-11T01:34:52.610Z,8.85
2022-10-11T01:35:13.128Z,8.84
2022-10-11T01:35:31.222Z,8.85
2022-10-11T01:35:49.259Z,8.85
2022-10-11T01:36:09.366Z,8.86
2022-10-11T01:36:28.840Z,8.85
2022-10-11T01:36:50.296Z,8.83
2022-10-11T01:37:09.465Z,8.83
2022-10-11T01:37:29.538Z,8.82
2022-10-11T01:37:46.485Z,8.82
2022-10-11T01:38:03.258Z,8.81
2022-10-11T01:38:22.491Z,8.81
2022-10-11T01:38:42.194Z,8.78
2022-10-11T01:38:59.589Z,8.78
2022-10-11T01:39:16.644Z,8.79
2022-10-11T01:39:34.134Z,8.76
2022-10-11T01:39:52.174Z,8.79
2022-10-11T01:40:10.912Z,8.80
2022-10-11T01:40:27.054Z,8.79
2022-10-11T01:40:44.438Z,8.80
2022-10-11T01:41:00.195Z,8.81
2022-10-11T01:41:16.751Z,8.80
2022-10-11T01:41:35.692Z,8.80
2022-10-11T01:41:52.658Z,8.80
2022-10-11T01:42:09.870Z,8.79
2022-10-11T01:42:23.991Z,8.79
2022-10-11T01:42:38.942Z,8.77
2022-10-11T01:42:54.876Z,8.77
2022-10-11T01:43:09.443Z,8.77
2022-10-11T01:43:24.683Z,8.76
2022-10-11T01:43:39.705Z,8.75
2022-10-11T01:43:57.148Z,8.75
2022-10-11T01:44:12.619Z,8.76
2022-10-11T01:44:26.756Z,8.78
2022-10-11T01:44:45.008Z,8.77
2022-10-11T01:44:59.376Z,8.78
2022-10-11T01:45:16.232Z,8.79
2022-10-11T01:45:31.306Z,8.79
2022-10-11T01:45:48.768Z,8.80
2022-10-11T01:46:03.372Z,8.80
2022-10-11T01:46:19.197Z,8.80
2022-10-11T01:46:33.257Z,8.81
2022-10-11T01:46:45.860Z,8.80
2022-10-11T01:46:58.434Z,8.80
2022-10-11T01:47:11.043Z,8.81
2022-10-11T01:47:26.096Z,8.80
2022-10-11T01:47:39.162Z,8.80
2022-10-11T01:48:02.383Z,8.80
2022-10-11T01:48:14.998Z,8.80
2022-10-11T01:48:27.711Z,8.79
2022-10-11T01:48:48.218Z,8.79
2022-10-11T01:49:02.572Z,8.79
2022-10-11T01:49:16.204Z,8.81
2022-10-11T01:49:28.822Z,8.81
2022-10-11T01:49:42.009Z,8.81
2022-10-11T01:49:56.664Z,8.80
2022-10-11T01:50:35.205Z,8.82
2022-10-11T01:50:51.232Z,8.82
2022-10-11T01:51:04.130Z,8.82
2022-10-11T01:51:19.705Z,8.81
2022-10-11T01:51:37.305Z,8.82
2022-10-11T01:51:52.843Z,8.83
2022-10-11T01:52:07.236Z,8.82
2022-10-11T01:52:21.489Z,8.82
2022-10-11T01:52:39.668Z,8.83
2022-10-11T01:52:52.536Z,8.82
2022-10-11T01:53:20.232Z,8.83
2022-10-11T01:54:00.188Z,8.82
2022-10-11T01:54:27.720Z,8.81
2022-10-11T01:55:09.156Z,8.77
2022-10-11T01:55:28.725Z,8.77
2022-10-11T01:55:49.938Z,8.78
2022-10-11T01:56:16.788Z,8.78
2022-10-11T01:56:42.602Z,8.77
2022-10-11T01:57:30.362Z,8.77
2022-10-11T01:57:55.191Z,8.78
2022-10-11T01:58:19.495Z,8.77
2022-10-11T01:58:45.630Z,8.77
2022-10-11T01:59:12.479Z,8.78
2022-10-11T01:59:41.234Z,8.77
2022-10-11T02:00:03.441Z,8.79
2022-10-11T02:00:19.437Z,8.78
2022-10-11T02:00:42.160Z,8.78
2022-10-11T02:01:01.861Z,8.81
2022-10-11T02:01:24.131Z,8.81
2022-10-11T02:01:49.266Z,8.82
2022-10-11T02:02:15.301Z,8.83
2022-10-11T02:02:40.964Z,8.85
2022-10-11T02:03:08.767Z,8.86
2022-10-11T02:03:32.070Z,8.88
2022-10-11T02:03:50.547Z,8.89
2022-10-11T02:04:09.666Z,8.89
2022-10-11T02:04:31.016Z,8.90
2022-10-11T02:04:47.583Z,8.92
2022-10-11T02:05:08.868Z,8.93
2022-10-11T02:05:29.666Z,8.95
2022-10-11T02:05:48.556Z,8.97
2022-10-11T02:06:09.743Z,9.00
2022-10-11T02:06:33.163Z,9.01
2022-10-11T02:06:53.450Z,9.02
2022-10-11T02:07:12.477Z,9.04
2022-10-11T02:07:33.629Z,9.07
2022-10-11T02:07:54.213Z,9.09
2022-10-11T02:08:16.097Z,9.13
2022-10-11T02:08:38.676Z,9.17
2022-10-11T02:08:57.810Z,9.20
2022-10-11T02:09:18.732Z,9.21
2022-10-11T02:09:36.470Z,9.24
2022-10-11T02:09:58.519Z,9.24
2022-10-11T02:10:17.030Z,9.27
2022-10-11T02:10:35.097Z,9.29
2022-10-11T02:10:54.107Z,9.30
2022-10-11T02:11:13.798Z,9.32
2022-10-11T02:11:29.982Z,9.34
2022-10-11T02:11:43.146Z,9.35
2022-10-11T02:12:01.236Z,9.37
2022-10-11T02:12:24.636Z,9.39
2022-10-11T02:12:43.250Z,9.40
2022-10-11T02:13:02.491Z,9.43
2022-10-11T02:13:22.310Z,9.46
2022-10-11T02:13:39.904Z,9.46
2022-10-11T02:13:58.746Z,9.50
2022-10-11T02:14:15.621Z,9.51
2022-10-11T02:14:34.603Z,9.53
2022-10-11T02:14:51.804Z,9.55
2022-10-11T02:15:09.361Z,9.56
2022-10-11T02:15:23.952Z,9.57
2022-10-11T02:15:41.270Z,9.59
2022-10-11T02:15:56.236Z,9.59
2022-10-11T02:16:12.917Z,9.61
2022-10-11T02:16:37.148Z,9.62
2022-10-11T02:16:55.892Z,9.64
2022-10-11T02:17:12.249Z,9.66
2022-10-11T02:17:31.044Z,9.67
2022-10-11T02:17:47.334Z,9.68
2022-10-11T02:18:03.686Z,9.70
2022-10-11T02:18:21.886Z,9.72
2022-10-11T02:18:38.163Z,9.72
2022-10-11T02:18:54.645Z,9.73
2022-10-11T02:19:09.218Z,9.74
2022-10-11T02:19:26.480Z,9.75
2022-10-11T02:19:42.843Z,9.78
2022-10-11T02:20:00.138Z,9.78
2022-10-11T02:20:18.493Z,9.80
2022-10-11T02:20:34.558Z,9.80
2022-10-11T02:20:48.943Z,9.81
2022-10-11T02:21:05.980Z,9.83
2022-10-11T02:21:20.898Z,9.84
2022-10-11T02:21:37.294Z,9.85
2022-10-11T02:21:54.686Z,9.87
2022-10-11T02:22:13.612Z,9.89
2022-10-11T02:22:30.668Z,9.91
2022-10-11T02:22:46.732Z,9.92
2022-10-11T02:23:06.086Z,9.93
2022-10-11T02:23:23.744Z,9.94
2022-10-11T02:23:41.360Z,9.98
2022-10-11T02:23:58.596Z,9.99
2022-10-11T02:24:16.863Z,10.00
2022-10-11T02:24:33.774Z,10.02
2022-10-11T02:24:51.332Z,10.02
2022-10-11T02:25:09.191Z,10.05
2022-10-11T02:25:26.576Z,10.09
2022-10-11T02:25:39.286Z,10.09
2022-10-11T02:25:52.708Z,10.10
2022-10-11T02:26:07.145Z,10.11
2022-10-11T02:26:23.097Z,10.14
2022-10-11T02:26:40.216Z,10.12
2022-10-11T02:26:55.836Z,10.15
2022-10-11T02:27:10.694Z,10.17
2022-10-11T02:27:26.770Z,10.17
2022-10-11T02:27:42.640Z,10.19
2022-10-11T02:27:59.582Z,10.18
2022-10-11T02:28:16.523Z,10.20
2022-10-11T02:28:33.957Z,10.22
2022-10-11T02:28:48.239Z,10.22
2022-10-11T02:29:05.180Z,10.24
2022-10-11T02:29:18.457Z,10.24
2022-10-11T02:29:34.502Z,10.25
2022-10-11T02:29:51.714Z,10.25
2022-10-11T02:30:07.487Z,10.27
2022-10-11T02:30:20.281Z,10.27
2022-10-11T02:30:34.988Z,10.29
2022-10-11T02:30:50.487Z,10.29
2022-10-11T02:31:06.890Z,10.30
2022-10-11T02:31:22.558Z,10.31
2022-10-11T02:31:36.588Z,10.32
2022-10-11T02:31:51.570Z,10.33
2022-10-11T02:32:05.858Z,10.32
2022-10-11T02:32:20.346Z,10.33
2022-10-11T02:32:33.766Z,10.33
2022-10-11T02:32:48.919Z,10.34
2022-10-11T02:33:06.549Z,10.34
2022-10-11T02:33:26.193Z,10.34
2022-10-11T02:33:43.811Z,10.35
2022-10-11T02:34:00.464Z,10.35
2022-10-11T02:34:16.790Z,10.36
2022-10-11T02:34:33.654Z,10.38
2022-10-11T02:34:52.701Z,10.38
2022-10-11T02:35:06.783Z,10.38
2022-10-11T02:35:20.222Z,10.39
2022-10-11T02:35:40.930Z,10.38
2022-10-11T02:35:59.100Z,10.39
2022-10-11T02:36:16.050Z,10.39
2022-10-11T02:36:41.320Z,10.39
2022-10-11T02:37:02.842Z,10.39
2022-10-11T02:37:21.260Z,10.38
2022-10-11T02:37:42.168Z,10.39
2022-10-11T02:38:02.642Z,10.39
2022-10-11T02:38:22.016Z,10.40
2022-10-11T02:38:40.337Z,10.41
2022-10-11T02:38:59.348Z,10.40
2022-10-11T02:39:17.416Z,10.40
2022-10-11T02:39:37.104Z,10.43
2022-10-11T02:39:57.963Z,10.41
2022-10-11T02:40:16.074Z,10.41
2022-10-11T02:40:32.446Z,10.42
2022-10-11T02:40:48.043Z,10.42
2022-10-11T02:41:11.010Z,10.43
2022-10-11T02:41:27.844Z,10.42
2022-10-11T02:41:43.232Z,10.43
2022-10-11T02:42:00.046Z,10.44
2022-10-11T02:42:17.543Z,10.44
2022-10-11T02:42:36.481Z,10.45
2022-10-11T02:42:54.776Z,10.46
2022-10-11T02:43:13.453Z,10.46
2022-10-11T02:43:33.345Z,10.47
2022-10-11T02:43:50.714Z,10.47
2022-10-11T02:44:08.281Z,10.48
2022-10-11T02:44:29.946Z,10.48
2022-10-11T02:44:46.954Z,10.48
2022-10-11T02:45:05.086Z,10.48
2022-10-11T02:45:22.101Z,10.50
2022-10-11T02:45:39.242Z,10.48
2022-10-11T02:45:56.686Z,10.50
2022-10-11T02:46:10.452Z,10.50
2022-10-11T02:46:25.391Z,10.50
2022-10-11T02:46:39.746Z,10.51
2022-10-11T02:46:52.675Z,10.51
2022-10-11T02:47:06.020Z,10.52
2022-10-11T02:47:19.048Z,10.52
2022-10-11T02:47:32.728Z,10.52
2022-10-11T02:47:47.089Z,10.52
2022-10-11T02:48:01.750Z,10.53
2022-10-11T02:48:15.800Z,10.53
2022-10-11T02:48:29.457Z,10.53
2022-10-11T02:48:42.652Z,10.53
2022-10-11T02:48:55.344Z,10.53
2022-10-11T02:49:08.903Z,10.53
2022-10-11T02:49:22.950Z,10.53
2022-10-11T02:49:36.256Z,10.55
2022-10-11T02:49:48.874Z,10.54
2022-10-11T02:50:02.134Z,10.52
2022-10-11T02:50:16.122Z,10.54
2022-10-11T02:50:29.094Z,10.55
2022-10-11T02:50:42.877Z,10.54
2022-10-11T02:50:57.648Z,10.54
2022-10-11T02:51:13.613Z,10.54
2022-10-11T02:51:27.162Z,10.54
2022-10-11T02:51:39.830Z,10.55
2022-10-11T02:51:54.872Z,10.55
2022-10-11T02:52:07.658Z,10.54
2022-10-11T02:52:21.410Z,10.55
2022-10-11T02:52:34.010Z,10.54
2022-10-11T02:52:46.618Z,10.55
2022-10-11T02:52:59.279Z,10.54
2022-10-11T02:53:12.236Z,10.55
2022-10-11T02:53:26.640Z,10.54
2022-10-11T02:53:39.293Z,10.55
2022-10-11T02:53:52.947Z,10.56
2022-10-11T02:54:06.134Z,10.55
2022-10-11T02:54:18.752Z,10.55
2022-10-11T02:54:31.547Z,10.55
2022-10-11T02:54:44.166Z,10.56
2022-10-11T02:54:56.802Z,10.56
2022-10-11T02:55:10.787Z,10.55
2022-10-11T02:55:24.427Z,10.56
2022-10-11T02:55:37.393Z,10.56
2022-10-11T02:55:52.022Z,10.57
2022-10-11T02:56:05.229Z,10.57
2022-10-11T02:56:18.058Z,10.57
2022-10-11T02:56:30.659Z,10.57
2022-10-11T02:56:44.314Z,10.55
2022-10-11T02:56:57.022Z,10.56
2022-10-11T02:57:09.639Z,10.57
2022-10-11T02:57:22.298Z,10.56
2022-10-11T02:57:34.908Z,10.56
2022-10-11T02:57:47.583Z,10.57
2022-10-11T02:58:00.524Z,10.57
2022-10-11T02:58:14.391Z,10.58
2022-10-11T02:58:27.028Z,10.57
2022-10-11T02:58:39.739Z,10.56
2022-10-11T02:58:52.371Z,10.57
2022-10-11T02:59:04.924Z,10.57
2022-10-11T02:59:17.568Z,10.57
2022-10-11T02:59:30.170Z,10.56
2022-10-11T02:59:42.756Z,10.56
2022-10-11T02:59:56.467Z,10.57
2022-10-11T03:00:10.213Z,10.56
2022-10-11T03:00:22.856Z,10.55
2022-10-11T03:00:35.509Z,10.56
2022-10-11T03:00:48.205Z,10.56
2022-10-11T03:01:02.252Z,10.56
2022-10-11T03:01:16.491Z,10.56
2022-10-11T03:01:29.187Z,10.57
2022-10-11T03:01:42.141Z,10.56
2022-10-11T03:01:54.878Z,10.57
2022-10-11T03:02:07.678Z,10.57
2022-10-11T03:02:20.350Z,10.55
2022-10-11T03:02:33.057Z,10.57
2022-10-11T03:02:45.708Z,10.58
2022-10-11T03:02:59.298Z,10.58
2022-10-11T03:03:12.253Z,10.57
2022-10-11T03:03:25.046Z,10.58
2022-10-11T03:03:37.616Z,10.58
2022-10-11T03:03:50.731Z,10.58
2022-10-11T03:04:03.372Z,10.57
2022-10-11T03:04:16.038Z,10.59
2022-10-11T03:04:29.642Z,10.58
2022-10-11T03:04:42.274Z,10.59
2022-10-11T03:04:54.850Z,10.59
2022-10-11T03:05:08.166Z,10.58
2022-10-11T03:05:21.118Z,10.59
2022-10-11T03:05:40.375Z,10.58
2022-10-11T03:05:58.415Z,10.59
2022-10-11T03:06:11.063Z,10.60
2022-10-11T03:06:25.163Z,10.60
2022-10-11T03:06:37.834Z,10.60
2022-10-11T03:06:50.445Z,10.62
2022-10-11T03:07:03.071Z,10.60
2022-10-11T03:07:15.684Z,10.61
2022-10-11T03:07:28.294Z,10.61
2022-10-11T03:07:40.920Z,10.61
2022-10-11T03:07:53.548Z,10.61
2022-10-11T03:08:07.433Z,10.61
2022-10-11T03:08:20.034Z,10.63
2022-10-11T03:08:33.100Z,10.62
2022-10-11T03:08:45.707Z,10.62
2022-10-11T03:08:58.316Z,10.63
2022-10-11T03:09:10.942Z,10.62
2022-10-11T03:09:23.575Z,10.64
2022-10-11T03:09:37.197Z,10.63
2022-10-11T03:09:49.786Z,10.64
2022-10-11T03:10:02.880Z,10.64
2022-10-11T03:10:15.552Z,10.63
2022-10-11T03:10:28.298Z,10.65
2022-10-11T03:10:41.388Z,10.64
2022-10-11T03:10:54.074Z,10.64
2022-10-11T03:11:06.938Z,10.64
2022-10-11T03:11:19.550Z,10.65
2022-10-11T03:11:32.187Z,10.65
2022-10-11T03:11:45.789Z,10.65
2022-10-11T03:11:58.402Z,10.65
2022-10-11T03:12:11.108Z,10.64
2022-10-11T03:12:23.778Z,10.64
2022-10-11T03:12:36.430Z,10.65
2022-10-11T03:12:49.026Z,10.64
2022-10-11T03:13:01.840Z,10.63
2022-10-11T03:13:18.352Z,10.64
2022-10-11T03:13:31.216Z,10.65
2022-10-11T03:13:44.043Z,10.64
2022-10-11T03:13:56.644Z,10.65
2022-10-11T03:14:09.259Z,10.65
2022-10-11T03:14:21.970Z,10.64
2022-10-11T03:14:34.574Z,10.65
2022-10-11T03:14:48.169Z,10.65
2022-10-11T03:15:00.835Z,10.64
2022-10-11T03:15:13.934Z,10.63
2022-10-11T03:15:26.626Z,10.64
2022-10-11T03:15:39.286Z,10.65
2022-10-11T03:16:02.782Z,10.64
2022-10-11T03:16:18.676Z,10.65
2022-10-11T03:16:31.275Z,10.64
2022-10-11T03:16:43.917Z,10.64
2022-10-11T03:17:00.756Z,10.64
2022-10-11T03:17:36.222Z,10.65
2022-10-11T03:17:50.555Z,10.65
2022-10-11T03:18:03.267Z,10.65
2022-10-11T03:18:16.031Z,10.65
2022-10-11T03:18:28.730Z,10.64
2022-10-11T03:18:41.362Z,10.65
2022-10-11T03:18:54.169Z,10.65
2022-10-11T03:19:06.852Z,10.65
2022-10-11T03:19:20.490Z,10.64
2022-10-11T03:19:33.699Z,10.65
2022-10-11T03:19:46.510Z,10.65
2022-10-11T03:19:59.211Z,10.65
2022-10-11T03:20:12.219Z,10.66
2022-10-11T03:20:25.283Z,10.65
2022-10-11T03:20:37.902Z,10.66
2022-10-11T03:20:50.482Z,10.67
2022-10-11T03:21:04.082Z,10.66
2022-10-11T03:21:16.766Z,10.66
2022-10-11T03:21:29.430Z,10.68
2022-10-11T03:21:42.472Z,10.68
2022-10-11T03:21:55.070Z,10.68
2022-10-11T03:22:07.691Z,10.68
2022-10-11T03:22:20.309Z,10.69
2022-10-11T03:22:32.917Z,10.69
2022-10-11T03:22:46.554Z,10.70
2022-10-11T03:22:59.240Z,10.69
2022-10-11T03:23:12.651Z,10.70
2022-10-11T03:23:25.383Z,10.71
2022-10-11T03:23:38.105Z,10.71
2022-10-11T03:23:50.762Z,10.71
2022-10-11T03:24:04.122Z,10.71
2022-10-11T03:24:17.726Z,10.71
2022-10-11T03:24:30.314Z,10.71
2022-10-11T03:24:42.968Z,10.72
2022-10-11T03:24:59.676Z,10.71
2022-10-11T03:25:15.381Z,10.73
2022-10-11T03:25:28.499Z,10.72
2022-10-11T03:25:41.118Z,10.72
2022-10-11T03:25:54.742Z,10.71
2022-10-11T03:26:07.846Z,10.74
2022-10-11T03:26:20.978Z,10.74
2022-10-11T03:26:33.596Z,10.74
2022-10-11T03:26:46.198Z,10.75
2022-10-11T03:26:58.862Z,10.75
2022-10-11T03:27:11.608Z,10.75
2022-10-11T03:27:24.344Z,10.76
2022-10-11T03:27:38.084Z,10.75
2022-10-11T03:27:50.667Z,10.76
2022-10-11T03:28:03.516Z,10.76
2022-10-11T03:28:16.161Z,10.77
2022-10-11T03:28:28.911Z,10.76
2022-10-11T03:28:41.710Z,10.78
2022-10-11T03:28:54.977Z,10.78
2022-10-11T03:29:08.825Z,10.79
2022-10-11T03:29:21.452Z,10.78
2022-10-11T03:29:34.056Z,10.78
2022-10-11T03:29:46.662Z,10.79